createdAt,value
2019-04-29T00:00:18.473Z,12.78
2019-04-29T00:02:48.174Z,10.13
2019-04-29T00:05:15.887Z,11.03
2019-04-29T00:07:43.687Z,10.43
2019-04-29T00:10:14.016Z,11.95
2019-04-29T00:12:41.930Z,10.70
2019-04-29T00:15:29.027Z,12.45
2019-04-29T00:17:58.130Z,12.43
2019-04-29T00:20:32.955Z,10.55
2019-04-29T00:23:00.243Z,10.35
2019-04-29T00:25:27.396Z,10.30
2019-04-29T00:27:55.365Z,12.40
2019-04-29T00:30:22.950Z,11.05
2019-04-29T00:32:50.627Z,11.68
2019-04-29T00:35:17.980Z,13.50
2019-04-29T00:37:56.096Z,11.85
2019-04-29T00:40:42.012Z,12.55
2019-04-29T00:43:11.424Z,11.33
2019-04-29T00:45:39.237Z,12.23
2019-04-29T00:48:06.740Z,13.35
2019-04-29T00:50:34.265Z,12.73
2019-04-29T00:53:01.758Z,14.78
2019-04-29T00:55:33.501Z,10.63
2019-04-29T00:58:00.947Z,12.78
2019-04-29T01:00:30.720Z,12.63
2019-04-29T01:02:58.854Z,12.43
2019-04-29T01:05:26.518Z,12.07
2019-04-29T01:07:54.260Z,13.13
2019-04-29T01:10:22.104Z,12.55
2019-04-29T01:12:49.597Z,15.15
2019-04-29T01:15:17.271Z,14.20
2019-04-29T01:17:44.874Z,12.70
2019-04-29T01:20:12.951Z,14.65
2019-04-29T01:22:41.471Z,15.48
2019-04-29T01:25:09.470Z,14.78
2019-04-29T01:27:57.155Z,13.93
2019-04-29T01:31:02.160Z,12.75
2019-04-29T01:33:29.796Z,14.20
2019-04-29T01:36:17.626Z,16.77
2019-04-29T01:38:48.729Z,15.13
2019-04-29T01:41:24.482Z,16.52
2019-04-29T01:43:59.275Z,14.45
2019-04-29T01:46:27.076Z,15.03
2019-04-29T01:48:54.930Z,14.10
2019-04-29T01:51:22.282Z,14.87
2019-04-29T01:53:50.004Z,14.98
2019-04-29T01:56:17.755Z,16.12
2019-04-29T01:58:45.330Z,17.95
2019-04-29T02:01:12.837Z,14.60
2019-04-29T02:03:41.241Z,20.25
2019-04-29T02:06:08.932Z,20.68
2019-04-29T02:08:36.256Z,15.28
2019-04-29T02:11:03.704Z,18.25
2019-04-29T02:13:30.932Z,18.10
2019-04-29T02:15:59.033Z,16.65
2019-04-29T02:18:27.517Z,15.88
2019-04-29T02:20:55.531Z,17.95
2019-04-29T02:23:24.577Z,16.30
2019-04-29T02:25:52.825Z,21.07
2019-04-29T02:28:20.279Z,17.27
2019-04-29T02:30:48.754Z,19.05
2019-04-29T02:33:16.550Z,18.15
2019-04-29T02:35:44.836Z,17.57
2019-04-29T02:38:19.865Z,20.75
2019-04-29T02:41:01.366Z,23.35
2019-04-29T02:43:31.212Z,23.85
2019-04-29T02:45:58.604Z,20.65
2019-04-29T02:48:30.003Z,18.00
2019-04-29T02:50:54.763Z,22.22
2019-04-29T02:53:22.094Z,21.65
2019-04-29T02:55:51.452Z,21.12
2019-04-29T02:58:32.523Z,19.12
2019-04-29T03:01:18.950Z,24.72
2019-04-29T03:03:54.092Z,19.27
2019-04-29T03:06:21.469Z,24.80
2019-04-29T03:08:48.757Z,23.00
2019-04-29T03:11:17.507Z,22.62
2019-04-29T03:13:44.735Z,28.00
2019-04-29T03:16:11.987Z,21.85
2019-04-29T03:18:41.578Z,24.32
2019-04-29T03:21:14.281Z,21.55
2019-04-29T03:23:41.741Z,24.30
2019-04-29T03:26:09.409Z,21.77
2019-04-29T03:28:36.811Z,20.70
2019-04-29T03:31:04.707Z,23.70
2019-04-29T03:33:33.419Z,23.32
2019-04-29T03:36:00.804Z,20.68
2019-04-29T03:38:28.458Z,23.83
2019-04-29T03:40:56.484Z,23.00
2019-04-29T03:43:23.923Z,23.50
2019-04-29T03:45:51.680Z,26.90
2019-04-29T03:48:19.881Z,24.00
2019-04-29T03:50:47.371Z,21.25
2019-04-29T03:53:14.965Z,26.93
2019-04-29T03:55:42.962Z,28.75
2019-04-29T03:58:10.184Z,29.40
2019-04-29T04:00:37.768Z,27.77
2019-04-29T04:03:07.063Z,28.60
2019-04-29T04:05:45.321Z,28.75
2019-04-29T04:08:31.030Z,29.37
2019-04-29T04:10:59.001Z,29.57
2019-04-29T04:13:26.153Z,30.30
2019-04-29T04:15:53.567Z,26.97
2019-04-29T04:18:22.990Z,35.65
2019-04-29T04:20:50.379Z,27.75
2019-04-29T04:23:17.623Z,31.37
2019-04-29T04:25:45.051Z,29.63
2019-04-29T04:28:13.198Z,32.08
2019-04-29T04:30:40.490Z,36.13
2019-04-29T04:33:07.940Z,32.58
2019-04-29T04:35:35.099Z,27.42
2019-04-29T04:38:02.569Z,29.70
2019-04-29T04:40:35.064Z,28.05
2019-04-29T04:43:03.718Z,29.00
2019-04-29T04:45:31.133Z,26.48
2019-04-29T04:47:58.417Z,28.45
2019-04-29T04:50:25.846Z,31.75
2019-04-29T04:52:53.019Z,27.70
2019-04-29T04:55:22.197Z,27.42
2019-04-29T04:57:50.036Z,28.23
2019-04-29T05:00:22.324Z,26.42
2019-04-29T05:02:50.301Z,30.25
2019-04-29T05:05:18.077Z,25.10
2019-04-29T05:07:45.396Z,26.07
2019-04-29T05:10:12.943Z,29.55
2019-04-29T05:12:40.778Z,29.50
2019-04-29T05:15:09.100Z,26.68
2019-04-29T05:17:37.483Z,26.52
2019-04-29T05:20:05.518Z,25.90
2019-04-29T05:22:32.900Z,30.90
2019-04-29T05:25:00.839Z,26.35
2019-04-29T05:27:28.926Z,23.22
2019-04-29T05:29:57.547Z,25.43
2019-04-29T05:32:24.959Z,32.20
2019-04-29T05:34:55.125Z,26.42
2019-04-29T05:37:41.112Z,26.10
2019-04-29T05:40:08.702Z,24.82
2019-04-29T05:42:36.185Z,30.35
2019-04-29T05:45:08.500Z,25.77
2019-04-29T05:47:37.667Z,24.60
2019-04-29T05:50:18.486Z,24.43
2019-04-29T05:52:49.873Z,29.02
2019-04-29T05:55:18.674Z,24.23
2019-04-29T05:57:46.419Z,24.82
2019-04-29T06:00:18.748Z,24.95
2019-04-29T06:02:43.984Z,28.15
2019-04-29T06:05:11.854Z,24.85
2019-04-29T06:07:39.867Z,24.82
2019-04-29T06:10:07.739Z,26.30
2019-04-29T06:12:35.406Z,25.08
2019-04-29T06:15:03.207Z,24.57
2019-04-29T06:17:31.817Z,26.50
2019-04-29T06:19:59.487Z,23.90
2019-04-29T06:22:27.343Z,23.45
2019-04-29T06:24:54.869Z,26.00
2019-04-29T06:27:22.783Z,21.62
2019-04-29T06:29:51.387Z,25.23
2019-04-29T06:32:20.211Z,18.40
2019-04-29T06:34:48.205Z,25.62
2019-04-29T06:37:15.584Z,26.73
2019-04-29T06:39:43.347Z,20.70
2019-04-29T06:42:10.970Z,22.85
2019-04-29T06:44:38.197Z,18.07
2019-04-29T06:47:05.514Z,23.15
2019-04-29T06:49:33.272Z,21.17
2019-04-29T06:52:01.860Z,21.20
2019-04-29T06:54:29.536Z,19.98
2019-04-29T06:56:57.273Z,19.90
2019-04-29T06:59:24.658Z,20.82
2019-04-29T07:01:52.144Z,18.27
2019-04-29T07:04:19.792Z,16.97
2019-04-29T07:06:57.356Z,22.42
2019-04-29T07:09:18.061Z,19.85
2019-04-29T07:11:45.488Z,16.62
2019-04-29T07:14:12.586Z,17.50
2019-04-29T07:16:40.008Z,17.52
2019-04-29T07:19:07.600Z,18.50
2019-04-29T07:21:35.222Z,15.35
2019-04-29T07:24:02.909Z,16.82
2019-04-29T07:26:30.478Z,16.55
2019-04-29T07:28:58.228Z,14.70
2019-04-29T07:31:28.389Z,17.67
2019-04-29T07:33:57.879Z,15.40
2019-04-29T07:36:24.906Z,16.60
2019-04-29T07:38:56.296Z,16.82
2019-04-29T07:41:21.492Z,14.78
2019-04-29T07:43:48.858Z,16.73
2019-04-29T07:46:25.056Z,15.60
2019-04-29T07:49:01.437Z,15.72
2019-04-29T07:51:22.581Z,19.02
2019-04-29T07:53:50.105Z,15.80
2019-04-29T07:56:17.872Z,14.75
2019-04-29T07:58:48.350Z,16.00
2019-04-29T08:01:15.282Z,15.72
2019-04-29T08:03:42.497Z,20.10
2019-04-29T08:06:10.401Z,19.45
2019-04-29T08:08:38.266Z,14.00
2019-04-29T08:11:08.911Z,18.23
2019-04-29T08:13:37.634Z,15.13
2019-04-29T08:16:05.261Z,14.07
2019-04-29T08:18:32.576Z,13.45
2019-04-29T08:21:00.344Z,13.00
2019-04-29T08:23:27.696Z,15.25
2019-04-29T08:25:57.674Z,14.47
2019-04-29T08:28:24.747Z,15.13
2019-04-29T08:30:52.459Z,10.78
2019-04-29T08:33:19.835Z,11.90
2019-04-29T08:35:47.421Z,15.85
2019-04-29T08:38:14.677Z,12.85
2019-04-29T08:40:45.090Z,13.93
2019-04-29T08:43:20.576Z,12.40
2019-04-29T08:45:51.233Z,11.20
2019-04-29T08:48:19.009Z,14.45
2019-04-29T08:50:46.221Z,12.63
2019-04-29T08:53:13.428Z,11.43
2019-04-29T08:55:40.718Z,13.70
2019-04-29T08:58:11.356Z,10.72
2019-04-29T09:00:37.104Z,10.70
2019-04-29T09:03:04.162Z,9.88
2019-04-29T09:05:31.664Z,11.68
2019-04-29T09:07:59.179Z,10.23
2019-04-29T09:10:27.720Z,10.70
2019-04-29T09:12:55.286Z,9.13
2019-04-29T09:15:22.928Z,9.05
2019-04-29T09:17:50.473Z,10.45
2019-04-29T09:20:18.102Z,12.85
2019-04-29T09:22:47.651Z,11.48
2019-04-29T09:25:28.832Z,12.03
2019-04-29T09:28:06.761Z,11.45
2019-04-29T09:30:34.339Z,9.85
2019-04-29T09:33:02.164Z,10.25
2019-04-29T09:35:33.813Z,10.30
2019-04-29T09:37:59.696Z,10.50
2019-04-29T09:40:29.177Z,10.13
2019-04-29T09:43:16.811Z,8.73
2019-04-29T09:45:46.028Z,11.95
2019-04-29T09:48:13.393Z,12.45
2019-04-29T09:50:41.091Z,13.95
2019-04-29T09:53:08.585Z,11.18
2019-04-29T09:55:39.935Z,9.63
2019-04-29T09:58:06.170Z,10.58
2019-04-29T10:00:36.258Z,9.95
2019-04-29T10:03:20.430Z,9.13
2019-04-29T10:05:49.701Z,11.20
2019-04-29T10:08:17.833Z,8.38
2019-04-29T10:10:45.826Z,11.20
2019-04-29T10:13:13.675Z,10.00
2019-04-29T10:15:46.154Z,11.30
2019-04-29T10:18:18.230Z,11.20
2019-04-29T10:20:50.705Z,9.25
2019-04-29T10:23:18.512Z,9.75
2019-04-29T10:25:46.042Z,13.62
2019-04-29T10:28:13.969Z,8.93
2019-04-29T10:30:41.551Z,8.60
2019-04-29T10:33:12.776Z,12.15
2019-04-29T10:35:40.827Z,11.53
2019-04-29T10:38:07.888Z,10.28
2019-04-29T10:40:46.346Z,13.10
2019-04-29T10:43:35.687Z,10.05
2019-04-29T10:46:15.704Z,11.18
2019-04-29T10:48:47.652Z,12.47
2019-04-29T10:51:16.528Z,8.68
2019-04-29T10:53:46.654Z,12.85
2019-04-29T10:56:13.570Z,13.72
2019-04-29T10:58:41.509Z,12.43
2019-04-29T11:02:09.128Z,11.00
2019-04-29T11:04:36.133Z,11.25
2019-04-29T11:07:26.450Z,12.03
2019-04-29T11:09:54.348Z,11.00
2019-04-29T11:12:21.652Z,10.68
2019-04-29T11:14:49.211Z,10.85
2019-04-29T11:17:19.381Z,10.00
2019-04-29T11:19:46.790Z,8.30
2019-04-29T11:22:15.893Z,9.70
2019-04-29T11:24:48.168Z,8.60
2019-04-29T11:27:17.386Z,10.15
2019-04-29T11:29:44.615Z,12.68
2019-04-29T11:32:24.889Z,12.15
2019-04-29T11:35:04.434Z,10.98
2019-04-29T11:37:31.963Z,10.58
2019-04-29T11:39:59.596Z,9.63
2019-04-29T11:42:26.767Z,8.68
2019-04-29T11:44:57.163Z,11.20
2019-04-29T11:47:25.109Z,10.53
2019-04-29T11:49:54.848Z,10.70
2019-04-29T11:52:23.645Z,11.50
2019-04-29T11:54:51.576Z,12.35
2019-04-29T11:57:21.075Z,12.55
2019-04-29T11:59:50.211Z,16.57
2019-04-29T12:02:23.838Z,11.03
2019-04-29T12:04:56.530Z,11.00
2019-04-29T12:07:31.780Z,7.70
2019-04-29T12:09:53.403Z,9.40
2019-04-29T12:12:22.084Z,12.55
2019-04-29T12:15:03.813Z,9.40
2019-04-29T12:17:34.706Z,10.05
2019-04-29T12:20:15.787Z,9.68
2019-04-29T12:22:48.623Z,11.85
2019-04-29T12:25:13.222Z,9.63
2019-04-29T12:27:41.036Z,11.03
2019-04-29T12:30:12.452Z,8.98
2019-04-29T12:33:01.385Z,9.15
2019-04-29T12:35:35.914Z,11.70
2019-04-29T12:38:21.816Z,12.00
2019-04-29T12:40:55.091Z,13.30
2019-04-29T12:43:25.580Z,10.15
2019-04-29T12:46:10.016Z,10.55
2019-04-29T12:48:38.784Z,10.70
2019-04-29T12:51:05.477Z,10.85
2019-04-29T12:53:32.852Z,12.20
2019-04-29T12:56:00.490Z,12.03
2019-04-29T12:58:27.617Z,11.30
2019-04-29T13:01:01.180Z,12.80
2019-04-29T13:03:39.396Z,10.58
2019-04-29T13:06:23.909Z,9.68
2019-04-29T13:08:56.259Z,11.83
2019-04-29T13:11:37.521Z,9.20
2019-04-29T13:13:59.732Z,9.93
2019-04-29T13:16:27.303Z,9.50
2019-04-29T13:19:10.842Z,10.70
2019-04-29T13:21:28.614Z,11.43
2019-04-29T13:24:12.865Z,10.48
2019-04-29T13:26:28.405Z,12.07
2019-04-29T13:29:01.968Z,9.83
2019-04-29T13:31:37.515Z,8.83
2019-04-29T13:33:55.376Z,10.23
2019-04-29T13:36:25.912Z,10.38
2019-04-29T13:38:52.455Z,12.28
2019-04-29T13:41:24.335Z,10.68
2019-04-29T13:43:52.972Z,10.68
2019-04-29T13:46:22.433Z,14.23
2019-04-29T13:48:56.906Z,11.80
2019-04-29T13:51:37.480Z,11.22
2019-04-29T13:54:06.127Z,12.82
2019-04-29T13:56:54.154Z,10.75
2019-04-29T13:59:10.750Z,10.45
2019-04-29T14:01:58.580Z,12.33
2019-04-29T14:04:29.361Z,12.23
2019-04-29T14:06:57.785Z,11.53
2019-04-29T14:09:25.426Z,13.35
2019-04-29T14:12:01.796Z,14.50
2019-04-29T14:14:24.295Z,10.70
2019-04-29T14:17:08.321Z,12.20
2019-04-29T14:19:40.467Z,10.40
2019-04-29T14:21:51.081Z,12.55
2019-04-29T14:24:18.769Z,11.85
2019-04-29T14:26:47.874Z,14.18
2019-04-29T14:29:16.729Z,11.93
2019-04-29T14:31:46.888Z,12.53
2019-04-29T14:34:34.935Z,9.38
2019-04-29T14:37:18.345Z,12.25
2019-04-29T14:39:37.226Z,11.80
2019-04-29T14:42:10.445Z,13.15
2019-04-29T14:44:46.176Z,14.93
2019-04-29T14:47:18.809Z,12.28
2019-04-29T14:49:55.165Z,12.98
2019-04-29T14:52:22.823Z,11.20
2019-04-29T14:54:50.043Z,11.10
2019-04-29T14:57:18.825Z,13.70
2019-04-29T14:59:46.290Z,13.48
2019-04-29T15:02:18.701Z,10.53
2019-04-29T15:04:45.656Z,12.25
2019-04-29T15:07:13.363Z,10.63
2019-04-29T15:09:55.807Z,18.62
2019-04-29T15:12:51.160Z,30.68
2019-04-29T15:15:22.766Z,10.93
2019-04-29T15:17:52.051Z,12.75
2019-04-29T15:20:25.322Z,11.30
2019-04-29T15:22:51.074Z,10.05
2019-04-29T15:25:20.980Z,14.23
2019-04-29T15:27:49.466Z,14.60
2019-04-29T15:30:17.874Z,13.22
2019-04-29T15:32:45.404Z,8.95
2019-04-29T15:35:13.044Z,13.50
2019-04-29T15:37:40.543Z,9.63
2019-04-29T15:40:09.743Z,13.53
2019-04-29T15:42:42.180Z,11.68
2019-04-29T15:45:07.332Z,13.50
2019-04-29T15:47:35.135Z,14.53
2019-04-29T15:50:17.399Z,12.78
2019-04-29T15:52:32.585Z,10.88
2019-04-29T15:55:01.539Z,15.50
2019-04-29T15:57:29.113Z,10.55
2019-04-29T16:00:01.226Z,15.25
2019-04-29T16:02:27.271Z,12.88
2019-04-29T16:04:56.748Z,13.20
2019-04-29T16:07:26.216Z,11.73
2019-04-29T16:09:58.605Z,14.18
2019-04-29T16:12:34.362Z,12.15
2019-04-29T16:15:03.269Z,10.40
2019-04-29T16:17:31.782Z,10.25
2019-04-29T16:20:00.934Z,11.45
2019-04-29T16:22:28.424Z,12.53
2019-04-29T16:24:59.485Z,9.93
2019-04-29T16:27:25.637Z,13.18
2019-04-29T16:29:54.274Z,14.18
2019-04-29T16:32:32.534Z,12.15
2019-04-29T16:34:59.927Z,11.35
2019-04-29T16:37:32.012Z,10.38
2019-04-29T16:39:59.861Z,8.58
2019-04-29T16:42:31.523Z,9.98
2019-04-29T16:44:59.446Z,9.88
2019-04-29T16:47:28.456Z,13.45
